createdAt,value
2023-08-19T00:00:40.734Z,29.85
2023-08-19T00:03:07.244Z,29.82
2023-08-19T00:05:33.730Z,29.84
2023-08-19T00:08:00.179Z,29.72
2023-08-19T00:10:26.584Z,29.70
2023-08-19T00:12:53.036Z,29.60
2023-08-19T00:15:19.459Z,29.55
2023-08-19T00:17:46.067Z,29.59
2023-08-19T00:20:12.563Z,29.48
2023-08-19T00:22:39.007Z,29.60
2023-08-19T00:25:05.425Z,29.69
2023-08-19T00:27:32.109Z,29.53
2023-08-19T00:29:58.707Z,29.48
2023-08-19T00:32:25.120Z,29.63
2023-08-19T00:34:51.550Z,29.58
2023-08-19T00:37:17.979Z,29.47
2023-08-19T00:39:44.400Z,29.43
2023-08-19T00:42:10.827Z,29.50
2023-08-19T00:44:37.270Z,29.45
2023-08-19T00:47:03.721Z,29.45
2023-08-19T00:49:30.145Z,29.43
2023-08-19T00:51:56.605Z,29.41
2023-08-19T00:54:23.020Z,29.35
2023-08-19T00:56:49.441Z,29.20
2023-08-19T00:59:15.896Z,29.31
2023-08-19T01:01:42.390Z,29.21
2023-08-19T01:04:09.096Z,29.27
2023-08-19T01:06:35.703Z,29.33
2023-08-19T01:09:02.162Z,29.36
2023-08-19T01:11:28.590Z,29.29
2023-08-19T01:13:55.023Z,29.06
2023-08-19T01:16:21.469Z,29.20
2023-08-19T01:18:47.954Z,28.90
2023-08-19T01:21:14.393Z,28.99
2023-08-19T01:23:40.829Z,29.13
2023-08-19T01:26:07.283Z,29.01
2023-08-19T01:28:33.690Z,28.98
2023-08-19T01:31:00.107Z,29.04
2023-08-19T01:33:26.522Z,28.91
2023-08-19T01:35:53.000Z,28.98
2023-08-19T01:38:19.472Z,28.95
2023-08-19T01:40:45.903Z,28.97
2023-08-19T01:43:12.341Z,29.08
2023-08-19T01:45:38.786Z,28.93
2023-08-19T01:48:05.282Z,28.97
2023-08-19T01:50:31.725Z,29.11
2023-08-19T01:52:58.158Z,28.90
2023-08-19T01:55:24.582Z,28.89
2023-08-19T01:57:51.019Z,28.89
2023-08-19T02:00:17.479Z,28.84
2023-08-19T02:02:44.000Z,28.76
2023-08-19T02:05:10.516Z,28.80
2023-08-19T02:07:36.983Z,28.75
2023-08-19T02:10:03.415Z,28.85
2023-08-19T02:12:29.825Z,28.83
2023-08-19T02:14:56.254Z,28.90
2023-08-19T02:17:22.693Z,28.79
2023-08-19T02:19:49.123Z,28.74
2023-08-19T02:22:15.546Z,28.85
2023-08-19T02:24:41.963Z,28.80
2023-08-19T02:27:08.380Z,28.85
2023-08-19T02:29:35.031Z,28.69
2023-08-19T02:32:01.482Z,28.65
2023-08-19T02:34:27.916Z,28.65
2023-08-19T02:36:54.359Z,28.67
2023-08-19T02:39:20.802Z,28.70
2023-08-19T02:41:47.221Z,28.41
2023-08-19T02:44:13.645Z,28.38
2023-08-19T02:46:40.103Z,28.36
2023-08-19T02:49:06.545Z,28.42
2023-08-19T02:51:33.013Z,28.32
2023-08-19T02:53:59.436Z,28.30
2023-08-19T02:56:25.881Z,28.24
2023-08-19T02:58:52.307Z,28.23
2023-08-19T03:01:18.741Z,28.18
2023-08-19T03:03:45.197Z,28.09
2023-08-19T03:06:11.621Z,28.29
2023-08-19T03:08:38.079Z,28.28
2023-08-19T03:11:04.518Z,28.30
2023-08-19T03:13:30.976Z,28.26
2023-08-19T03:15:57.411Z,28.10
2023-08-19T03:18:23.845Z,28.14
2023-08-19T03:20:50.272Z,28.11
2023-08-19T03:23:16.689Z,27.95
2023-08-19T03:25:43.129Z,28.15
2023-08-19T03:28:09.582Z,28.11
2023-08-19T03:30:36.031Z,28.39
2023-08-19T03:33:02.551Z,28.40
2023-08-19T03:35:29.032Z,28.40
2023-08-19T03:37:55.459Z,28.37
2023-08-19T03:40:21.892Z,28.33
2023-08-19T03:42:48.330Z,28.09
2023-08-19T03:45:14.743Z,28.20
2023-08-19T03:47:41.236Z,28.14
2023-08-19T03:50:07.675Z,28.28
2023-08-19T03:52:34.139Z,28.23
2023-08-19T03:55:00.583Z,28.23
2023-08-19T03:57:27.039Z,28.20
2023-08-19T03:59:53.446Z,28.25
2023-08-19T04:02:19.892Z,28.30
2023-08-19T04:04:46.342Z,28.21
2023-08-19T04:07:12.763Z,28.30
2023-08-19T04:09:39.206Z,28.31
2023-08-19T04:12:05.616Z,28.22
2023-08-19T04:14:32.050Z,28.14
2023-08-19T04:16:58.461Z,28.24
2023-08-19T04:19:24.889Z,28.30
2023-08-19T04:21:51.330Z,28.29
2023-08-19T04:24:17.765Z,28.00
2023-08-19T04:26:44.228Z,28.11
2023-08-19T04:29:10.782Z,28.02
2023-08-19T04:31:37.265Z,28.14
2023-08-19T04:34:03.717Z,28.04
2023-08-19T04:36:30.141Z,28.22
2023-08-19T04:38:56.564Z,28.31
2023-08-19T04:41:22.991Z,28.26
2023-08-19T04:43:49.416Z,28.33
2023-08-19T04:46:15.882Z,28.57
2023-08-19T04:48:42.350Z,28.48
2023-08-19T04:51:08.802Z,28.33
2023-08-19T04:53:35.236Z,28.09
2023-08-19T04:56:01.681Z,28.24
2023-08-19T04:58:28.118Z,28.18
2023-08-19T05:00:54.550Z,27.76
2023-08-19T05:03:20.988Z,27.92
2023-08-19T05:05:47.467Z,28.13
2023-08-19T05:08:13.894Z,27.50
2023-08-19T05:10:40.329Z,26.96
2023-08-19T05:13:06.737Z,26.85
2023-08-19T05:15:33.167Z,27.10
2023-08-19T05:17:59.677Z,26.46
2023-08-19T05:20:27.514Z,26.81
2023-08-19T05:22:53.966Z,26.95
2023-08-19T05:25:20.414Z,26.75
2023-08-19T05:27:46.865Z,26.97
2023-08-19T05:30:13.312Z,27.27
2023-08-19T05:32:39.781Z,27.39
2023-08-19T05:35:06.237Z,27.58
2023-08-19T05:37:32.939Z,27.34
2023-08-19T05:39:59.539Z,27.27
2023-08-19T05:42:25.983Z,27.53
2023-08-19T05:44:52.402Z,27.37
2023-08-19T05:47:18.860Z,27.42
2023-08-19T05:49:45.303Z,27.52
2023-08-19T05:52:11.801Z,27.77
2023-08-19T05:54:38.248Z,27.74
2023-08-19T05:57:04.686Z,27.06
2023-08-19T05:59:31.117Z,25.86
2023-08-19T06:01:57.548Z,26.03
2023-08-19T06:04:23.971Z,25.85
2023-08-19T06:06:52.020Z,25.77
2023-08-19T06:09:21.088Z,25.83
2023-08-19T06:11:47.509Z,26.09
2023-08-19T06:14:13.908Z,26.08
2023-08-19T06:16:40.370Z,26.60
2023-08-19T06:19:06.808Z,26.23
2023-08-19T06:21:33.237Z,26.27
2023-08-19T06:23:59.643Z,26.00
2023-08-19T06:26:26.089Z,26.19
2023-08-19T06:28:52.514Z,26.62
2023-08-19T06:31:21.431Z,25.87
2023-08-19T06:33:48.148Z,25.62
2023-08-19T06:36:14.573Z,25.86
2023-08-19T06:38:41.125Z,25.93
2023-08-19T06:41:07.553Z,26.49
2023-08-19T06:43:33.985Z,26.51
2023-08-19T06:46:00.462Z,26.99
2023-08-19T06:48:26.882Z,27.65
2023-08-19T06:50:53.339Z,28.19
2023-08-19T06:53:19.767Z,28.52
2023-08-19T06:55:46.184Z,28.77
2023-08-19T06:58:12.624Z,27.84
2023-08-19T07:00:39.116Z,27.08
2023-08-19T07:03:05.830Z,27.01
2023-08-19T07:05:32.353Z,26.49
2023-08-19T07:07:58.762Z,26.31
2023-08-19T07:10:25.211Z,26.33
2023-08-19T07:12:51.672Z,26.42
2023-08-19T07:15:18.133Z,26.77
2023-08-19T07:17:44.574Z,26.72
2023-08-19T07:20:10.980Z,26.55
2023-08-19T07:22:37.443Z,26.79
2023-08-19T07:25:03.880Z,26.43
2023-08-19T07:27:30.519Z,26.68
2023-08-19T07:29:57.132Z,27.22
2023-08-19T07:32:23.592Z,26.63
2023-08-19T07:34:50.052Z,26.16
2023-08-19T07:37:16.501Z,26.21
2023-08-19T07:39:42.922Z,26.51
2023-08-19T07:42:09.351Z,27.08
2023-08-19T07:44:35.758Z,27.26
2023-08-19T07:47:02.196Z,26.89
2023-08-19T07:49:28.620Z,27.25
2023-08-19T07:51:55.037Z,27.34
2023-08-19T07:54:21.465Z,27.32
2023-08-19T07:56:47.899Z,27.43
2023-08-19T07:59:14.412Z,26.84
2023-08-19T08:01:40.879Z,26.26
2023-08-19T08:04:07.354Z,26.53
2023-08-19T08:06:33.805Z,26.38
2023-08-19T08:09:00.237Z,26.63
2023-08-19T08:11:26.661Z,26.99
2023-08-19T08:13:53.119Z,26.91
2023-08-19T08:16:19.579Z,27.49
2023-08-19T08:18:46.047Z,28.14
2023-08-19T08:21:12.463Z,28.24
2023-08-19T08:23:38.889Z,28.64
2023-08-19T08:26:05.359Z,28.38
2023-08-19T08:28:31.761Z,28.97
2023-08-19T08:30:58.197Z,29.56
2023-08-19T08:33:24.623Z,28.77
2023-08-19T08:35:51.057Z,28.78
2023-08-19T08:38:17.492Z,28.95
2023-08-19T08:40:43.949Z,28.61
2023-08-19T08:43:10.383Z,28.91
2023-08-19T08:45:36.832Z,29.30
2023-08-19T08:48:03.435Z,28.74
2023-08-19T08:50:29.951Z,28.73
2023-08-19T08:52:56.388Z,28.36
2023-08-19T08:55:22.812Z,28.35
2023-08-19T08:57:49.225Z,28.49
2023-08-19T09:00:15.641Z,28.16
2023-08-19T09:02:42.127Z,27.72
2023-08-19T09:05:08.652Z,27.90
2023-08-19T09:07:35.127Z,27.73
2023-08-19T09:10:01.587Z,28.00
2023-08-19T09:12:28.206Z,28.58
2023-08-19T09:14:54.615Z,28.98
2023-08-19T09:17:21.047Z,29.26
2023-08-19T09:19:47.452Z,29.76
2023-08-19T09:22:13.879Z,29.41
2023-08-19T09:24:40.363Z,29.52
2023-08-19T09:27:06.797Z,29.33
2023-08-19T09:29:33.263Z,28.90
2023-08-19T09:31:59.710Z,29.46
2023-08-19T09:34:26.135Z,29.42
2023-08-19T09:36:52.578Z,30.03
2023-08-19T09:39:18.990Z,29.38
2023-08-19T09:41:45.468Z,29.30
2023-08-19T09:44:11.927Z,29.62
2023-08-19T09:46:41.332Z,29.82
2023-08-19T09:49:09.682Z,29.36
2023-08-19T09:51:36.132Z,29.34
2023-08-19T09:54:02.554Z,29.59
2023-08-19T09:56:29.004Z,29.45
2023-08-19T09:58:55.459Z,29.67
2023-08-19T10:01:22.000Z,30.00
2023-08-19T10:03:50.120Z,30.17
2023-08-19T10:06:18.763Z,29.92
2023-08-19T10:08:45.209Z,29.73
2023-08-19T10:11:11.629Z,29.71
2023-08-19T10:13:38.067Z,29.64
2023-08-19T10:16:04.498Z,29.33
2023-08-19T10:18:30.933Z,28.73
2023-08-19T10:20:57.372Z,29.25
2023-08-19T10:23:23.872Z,29.29
2023-08-19T10:25:50.417Z,28.72
2023-08-19T10:28:16.862Z,29.29
2023-08-19T10:30:43.306Z,29.10
2023-08-19T10:33:09.757Z,29.17
2023-08-19T10:35:36.281Z,29.09
2023-08-19T10:38:02.711Z,29.33
2023-08-19T10:40:29.154Z,29.65
2023-08-19T10:42:55.576Z,29.94
2023-08-19T10:45:22.009Z,30.50
2023-08-19T10:47:48.477Z,30.98
2023-08-19T10:50:14.923Z,31.40
2023-08-19T10:52:41.341Z,31.27
2023-08-19T10:55:07.762Z,30.50
2023-08-19T10:57:34.188Z,30.92
2023-08-19T11:00:00.634Z,30.71
2023-08-19T11:02:27.095Z,30.79
2023-08-19T11:04:53.551Z,30.94
2023-08-19T11:07:20.019Z,30.71
2023-08-19T11:09:46.435Z,31.15
2023-08-19T11:12:12.897Z,31.49
2023-08-19T11:14:39.304Z,31.72
2023-08-19T11:17:05.766Z,31.79
2023-08-19T11:19:32.266Z,31.47
2023-08-19T11:21:58.663Z,31.53
2023-08-19T11:24:25.088Z,31.97
2023-08-19T11:26:51.522Z,31.79
2023-08-19T11:29:17.992Z,32.03
2023-08-19T11:31:44.479Z,31.93
2023-08-19T11:34:10.947Z,31.88
2023-08-19T11:36:37.370Z,32.34
2023-08-19T11:39:03.802Z,32.72
2023-08-19T11:41:30.207Z,32.75
2023-08-19T11:43:56.638Z,33.01
2023-08-19T11:46:23.153Z,33.27
2023-08-19T11:48:49.612Z,32.78
2023-08-19T11:51:19.151Z,32.83
2023-08-19T11:53:46.155Z,33.06
2023-08-19T11:56:12.617Z,33.29
2023-08-19T11:58:39.045Z,33.48
2023-08-19T12:01:05.559Z,33.99
2023-08-19T12:03:32.039Z,33.71
2023-08-19T12:05:58.487Z,33.50
2023-08-19T12:08:25.962Z,33.00
2023-08-19T12:10:52.463Z,33.15
2023-08-19T12:13:18.880Z,33.38
2023-08-19T12:15:45.326Z,32.81
2023-08-19T12:18:11.790Z,33.38
2023-08-19T12:20:38.253Z,33.48
2023-08-19T12:23:04.694Z,33.29
2023-08-19T12:25:31.145Z,33.36
2023-08-19T12:27:57.601Z,33.41
2023-08-19T12:30:24.021Z,33.71
2023-08-19T12:32:50.478Z,33.21
2023-08-19T12:35:16.925Z,33.21
2023-08-19T12:37:43.362Z,33.29
2023-08-19T12:40:09.761Z,33.21
2023-08-19T12:42:46.726Z,33.53
2023-08-19T12:45:14.965Z,33.75
2023-08-19T12:47:41.658Z,34.20
2023-08-19T12:50:08.171Z,34.31
2023-08-19T12:52:34.877Z,34.22
2023-08-19T12:55:01.556Z,34.31
2023-08-19T12:57:27.983Z,34.86
2023-08-19T12:59:54.612Z,34.64
2023-08-19T13:02:21.017Z,34.07
2023-08-19T13:04:47.454Z,34.15
2023-08-19T13:07:13.874Z,34.21
2023-08-19T13:09:40.296Z,34.72
2023-08-19T13:12:06.719Z,35.32
2023-08-19T13:14:33.187Z,34.31
2023-08-19T13:16:59.652Z,34.36
2023-08-19T13:19:26.086Z,34.72
2023-08-19T13:21:52.517Z,35.04
2023-08-19T13:24:18.937Z,35.46
2023-08-19T13:26:45.383Z,35.34
2023-08-19T13:29:11.816Z,35.59
2023-08-19T13:31:38.251Z,35.36
2023-08-19T13:34:05.780Z,35.61
2023-08-19T13:36:32.203Z,35.81
2023-08-19T13:38:58.614Z,35.56
2023-08-19T13:41:28.135Z,35.92
2023-08-19T13:43:54.919Z,35.82
2023-08-19T13:46:21.406Z,35.52
2023-08-19T13:48:47.870Z,35.61
2023-08-19T13:51:14.288Z,34.66
2023-08-19T13:53:40.699Z,34.82
2023-08-19T13:56:07.130Z,35.43
2023-08-19T13:58:33.570Z,35.39
2023-08-19T14:01:00.036Z,35.58
2023-08-19T14:03:26.555Z,35.61
2023-08-19T14:05:53.036Z,35.23
2023-08-19T14:08:19.482Z,35.79
2023-08-19T14:10:45.939Z,36.16
2023-08-19T14:13:12.386Z,36.18
2023-08-19T14:15:38.845Z,36.46
2023-08-19T14:18:05.402Z,35.90
2023-08-19T14:20:31.891Z,36.57
2023-08-19T14:22:58.305Z,36.06
2023-08-19T14:25:24.745Z,35.17
2023-08-19T14:27:51.177Z,35.30
2023-08-19T14:30:17.626Z,36.00
2023-08-19T14:32:44.072Z,35.48
2023-08-19T14:35:10.535Z,36.04
2023-08-19T14:37:39.841Z,35.53
2023-08-19T14:40:07.709Z,35.10
2023-08-19T14:42:34.125Z,35.36
2023-08-19T14:45:00.534Z,35.40
2023-08-19T14:47:26.975Z,35.54
2023-08-19T14:49:53.428Z,35.91
2023-08-19T14:52:19.897Z,36.37
2023-08-19T14:54:46.341Z,36.55
2023-08-19T14:57:12.781Z,36.63
2023-08-19T14:59:39.312Z,36.67
2023-08-19T15:02:05.778Z,37.02
2023-08-19T15:04:32.367Z,37.19
2023-08-19T15:06:58.865Z,37.55
2023-08-19T15:09:27.374Z,37.37
2023-08-19T15:11:54.019Z,36.76
2023-08-19T15:14:20.464Z,37.87
2023-08-19T15:16:46.866Z,37.65
2023-08-19T15:19:13.324Z,37.32
2023-08-19T15:21:39.750Z,37.59
2023-08-19T15:24:06.254Z,37.20
2023-08-19T15:26:32.758Z,37.74
2023-08-19T15:28:59.315Z,37.96
2023-08-19T15:31:25.766Z,37.03
2023-08-19T15:33:52.218Z,36.78
2023-08-19T15:36:19.756Z,37.23
2023-08-19T15:38:46.360Z,37.43
2023-08-19T15:41:12.888Z,36.81
2023-08-19T15:43:39.330Z,37.10
2023-08-19T15:46:05.834Z,37.86
2023-08-19T15:48:32.286Z,37.36
2023-08-19T15:50:58.772Z,37.18
2023-08-19T15:53:25.194Z,36.39
2023-08-19T15:55:51.617Z,36.13
2023-08-19T15:58:18.023Z,36.12
2023-08-19T16:00:44.513Z,36.35
2023-08-19T16:03:10.999Z,36.48
2023-08-19T16:05:37.447Z,36.49
2023-08-19T16:08:03.914Z,36.21
2023-08-19T16:10:30.360Z,36.61
2023-08-19T16:12:56.786Z,36.40
2023-08-19T16:15:23.228Z,35.87
2023-08-19T16:17:49.686Z,35.20
2023-08-19T16:20:16.140Z,35.48
2023-08-19T16:22:42.585Z,35.40
2023-08-19T16:25:08.991Z,35.72
2023-08-19T16:27:35.754Z,35.97
2023-08-19T16:30:02.412Z,35.62
2023-08-19T16:32:28.871Z,36.33
2023-08-19T16:34:55.348Z,37.47
2023-08-19T16:37:21.794Z,37.33
2023-08-19T16:39:48.250Z,37.91
2023-08-19T16:42:14.694Z,38.04
2023-08-19T16:44:41.129Z,38.50
2023-08-19T16:47:07.555Z,38.63
2023-08-19T16:49:34.016Z,38.43
2023-08-19T16:52:00.482Z,38.32
2023-08-19T16:54:26.924Z,38.02
2023-08-19T16:56:53.349Z,37.33
2023-08-19T16:59:19.811Z,36.94
2023-08-19T17:01:46.287Z,37.04
2023-08-19T17:04:12.747Z,36.96
2023-08-19T17:06:39.195Z,36.98
2023-08-19T17:09:05.615Z,37.01
2023-08-19T17:11:32.092Z,36.72
2023-08-19T17:13:58.524Z,36.60
2023-08-19T17:16:24.990Z,36.70
2023-08-19T17:18:51.523Z,36.61
2023-08-19T17:21:17.957Z,36.47
2023-08-19T17:23:44.446Z,36.30
2023-08-19T17:26:10.878Z,36.24
2023-08-19T17:28:37.315Z,36.10
2023-08-19T17:31:03.761Z,36.02
2023-08-19T17:33:30.226Z,35.79
2023-08-19T17:35:56.670Z,35.94
2023-08-19T17:38:23.126Z,35.85
2023-08-19T17:40:49.567Z,35.58
2023-08-19T17:43:16.006Z,35.74
2023-08-19T17:45:42.433Z,35.34
2023-08-19T17:48:08.937Z,35.27
2023-08-19T17:50:35.442Z,35.35
2023-08-19T17:53:01.936Z,35.23
2023-08-19T17:55:28.356Z,35.36
2023-08-19T17:57:54.802Z,35.34
2023-08-19T18:00:21.286Z,35.55
2023-08-19T18:02:47.858Z,35.47
2023-08-19T18:05:14.365Z,35.61
2023-08-19T18:07:40.827Z,35.49
2023-08-19T18:10:07.304Z,35.75
2023-08-19T18:12:33.737Z,35.72
2023-08-19T18:15:00.195Z,35.64
2023-08-19T18:17:26.679Z,35.46
2023-08-19T18:19:53.132Z,35.11
2023-08-19T18:22:19.582Z,35.13
2023-08-19T18:24:46.026Z,35.14
2023-08-19T18:27:12.458Z,35.13
2023-08-19T18:29:38.894Z,35.16
2023-08-19T18:32:05.341Z,34.84
2023-08-19T18:34:31.784Z,34.86
2023-08-19T18:36:58.207Z,34.73
2023-08-19T18:39:24.638Z,34.67
2023-08-19T18:41:51.071Z,34.76
2023-08-19T18:44:17.497Z,34.53
2023-08-19T18:46:43.958Z,33.96
2023-08-19T18:49:10.379Z,34.05
2023-08-19T18:51:36.837Z,34.13
2023-08-19T18:54:03.290Z,34.01
2023-08-19T18:56:29.725Z,33.63
2023-08-19T18:58:56.148Z,33.52
2023-08-19T19:01:22.704Z,33.69
2023-08-19T19:03:49.137Z,33.33
2023-08-19T19:06:15.535Z,33.17
2023-08-19T19:08:41.989Z,32.68
2023-08-19T19:11:08.428Z,32.94
2023-08-19T19:13:34.862Z,33.07
2023-08-19T19:16:01.320Z,32.83
2023-08-19T19:18:27.785Z,32.24
2023-08-19T19:20:54.390Z,32.51
2023-08-19T19:23:20.838Z,32.20
2023-08-19T19:25:47.253Z,31.49
2023-08-19T19:28:13.698Z,32.28
2023-08-19T19:30:40.163Z,31.93
2023-08-19T19:33:06.690Z,31.52
2023-08-19T19:35:33.195Z,31.70
2023-08-19T19:37:59.607Z,31.18
2023-08-19T19:40:26.066Z,31.47
2023-08-19T19:42:52.471Z,31.86
2023-08-19T19:45:18.986Z,31.87
2023-08-19T19:47:45.535Z,32.12
2023-08-19T19:50:11.981Z,31.71
2023-08-19T19:52:38.451Z,31.14
2023-08-19T19:55:04.871Z,31.32
2023-08-19T19:57:31.412Z,31.36
2023-08-19T19:59:57.868Z,31.14
2023-08-19T20:02:24.311Z,31.33
2023-08-19T20:04:50.798Z,31.13
2023-08-19T20:07:17.283Z,30.88
2023-08-19T20:09:43.789Z,31.02
2023-08-19T20:12:10.222Z,31.00
2023-08-19T20:14:36.664Z,31.10
2023-08-19T20:17:03.089Z,31.33
2023-08-19T20:19:29.509Z,31.68
2023-08-19T20:21:55.930Z,31.26
2023-08-19T20:24:22.364Z,31.48
2023-08-19T20:26:48.833Z,31.39
2023-08-19T20:29:15.273Z,30.92
2023-08-19T20:31:41.744Z,30.57
2023-08-19T20:34:08.207Z,30.54
2023-08-19T20:36:34.650Z,30.91
2023-08-19T20:39:01.075Z,31.45
2023-08-19T20:41:27.501Z,31.20
2023-08-19T20:43:53.941Z,31.59
2023-08-19T20:46:20.439Z,31.43
2023-08-19T20:48:46.880Z,31.64
2023-08-19T20:51:13.333Z,31.70
2023-08-19T20:53:39.769Z,31.74
2023-08-19T20:56:06.233Z,31.54
2023-08-19T20:58:32.673Z,31.58
2023-08-19T21:00:59.104Z,31.70
2023-08-19T21:03:25.527Z,32.04
2023-08-19T21:05:52.369Z,32.00
2023-08-19T21:08:18.909Z,31.90
2023-08-19T21:10:45.355Z,31.84
2023-08-19T21:13:11.773Z,32.02
2023-08-19T21:15:38.219Z,31.91
2023-08-19T21:18:04.697Z,31.92
2023-08-19T21:20:31.159Z,31.89
2023-08-19T21:22:57.608Z,31.96
2023-08-19T21:25:24.019Z,31.93
2023-08-19T21:27:50.440Z,31.87
2023-08-19T21:30:16.880Z,31.96
2023-08-19T21:32:43.332Z,31.81
2023-08-19T21:35:09.827Z,31.63
2023-08-19T21:37:36.668Z,31.78
2023-08-19T21:40:03.652Z,31.75
2023-08-19T21:42:30.077Z,31.58
2023-08-19T21:44:56.545Z,31.92
2023-08-19T21:47:22.977Z,31.80
2023-08-19T21:49:49.486Z,31.39
2023-08-19T21:52:15.931Z,31.29
2023-08-19T21:54:42.402Z,31.41
2023-08-19T21:57:08.856Z,31.30
2023-08-19T21:59:35.305Z,31.12
2023-08-19T22:02:01.796Z,30.69
2023-08-19T22:04:28.264Z,31.02
2023-08-19T22:06:54.741Z,30.40
2023-08-19T22:09:21.177Z,30.02
2023-08-19T22:11:47.608Z,29.74
2023-08-19T22:14:14.031Z,30.12
2023-08-19T22:16:40.487Z,30.38
2023-08-19T22:19:06.952Z,30.72
2023-08-19T22:21:33.366Z,31.10
2023-08-19T22:23:59.798Z,31.11
2023-08-19T22:26:26.322Z,31.00
2023-08-19T22:28:52.752Z,31.29
2023-08-19T22:31:19.188Z,31.16
2023-08-19T22:33:45.672Z,31.01
2023-08-19T22:36:12.185Z,31.08
2023-08-19T22:38:38.619Z,31.03
2023-08-19T22:41:05.053Z,30.90
2023-08-19T22:43:31.480Z,30.88
2023-08-19T22:45:57.986Z,30.87
2023-08-19T22:48:24.447Z,30.77
2023-08-19T22:50:50.888Z,30.85
2023-08-19T22:53:17.320Z,30.89
2023-08-19T22:55:43.738Z,31.00
2023-08-19T22:58:10.192Z,30.81
2023-08-19T23:00:36.633Z,30.93
2023-08-19T23:03:03.122Z,30.82
2023-08-19T23:05:29.602Z,30.84
2023-08-19T23:07:56.037Z,31.02
2023-08-19T23:10:22.462Z,30.88
2023-08-19T23:12:48.900Z,30.84
2023-08-19T23:15:15.316Z,30.79
2023-08-19T23:17:42.057Z,30.91
2023-08-19T23:20:08.472Z,30.85
2023-08-19T23:22:34.933Z,30.72
2023-08-19T23:25:01.370Z,30.68
2023-08-19T23:27:27.784Z,30.83
2023-08-19T23:29:54.231Z,30.76
2023-08-19T23:32:20.670Z,30.83
2023-08-19T23:34:47.114Z,30.82
2023-08-19T23:37:13.571Z,30.69
2023-08-19T23:39:40.026Z,30.61
2023-08-19T23:42:06.457Z,30.52
2023-08-19T23:44:32.898Z,30.62
2023-08-19T23:46:59.324Z,30.72
2023-08-19T23:49:25.786Z,30.39
2023-08-19T23:51:52.224Z,30.10
2023-08-19T23:54:18.651Z,30.41
2023-08-19T23:56:45.090Z,30.42
2023-08-19T23:59:11.526Z,30.09
